Aérodrome :
LOGIN :

S'inscrire | Disclaimer

   EN    FR    IT 

 










Légende :    VFR   VFR Marginal   IFR   IFR Intensif   IFR Très Intensif
Visi : 
Plafond : 
>= 8 km
>= 3000ft
5 à 8 km
1000 à 3000 ft
1500m à 5 km
500 à 1000 ft
800 à 1500m
200 à 500 ft
< 800m
< 200 ft
Symboles :   Orages  Brouillard  Fortes neiges  Fortes précipitations  Vent > 20 kt
SIGMETs :   Divers  Orages  Givrage  Turbulence  Onde Orograph.  Cendres Volcan.







- Altitude de l'aérodrome : 458 ft
- Voir les cartes d'approche


LFSI - St-Dizier

DERNIER METAR :
  • 211500Z AUTO 30010KT 270V330 9999 4200 FEW046 SCT086 25/13 Q1013

METARs EXPIRÉS :
  • 211430Z AUTO 30008KT 270V340 9999 FEW043 SCT056 BKN070 26/14 Q1013
  • 211400Z AUTO 30006KT 260V360 9999 SCT042 BKN049 OVC064 24/14 Q1013
  • 211330Z AUTO 31005KT 260V360 9999 FEW048 OVC078 24/14 Q1013
  • 211300Z AUTO 29008KT 270V330 9999 FEW038 SCT052 OVC074 23/14 Q1013
  • 211230Z AUTO 27010KT 210V290 8000 SCT036 BKN046 OVC068 25/14 Q1013

TAF TAF LFSI
Valide du 21 à 15h jusqu'au 22 à 15h UTC


211400Z 2115/2215 25008KT CAVOK
TEMPO 2118/2121 36012KT SHRA SCT045TCU
TEMPO 2207/2209 SCT015
TEMPO 2210/2215 35010KT SHRA BKN050TCU
Pas de NOTAMs connus pour ce terrain.



MET'MAP, la Météo Aéronautique d'un coup d'oeil ! - Copyright ORBIFLY Décembre 2007 - Disclaimer

ORBIFLY MET'MAP TEAM :

Programmation & Développement : Alexandra Zaïnal
Conception & Développement : Baudouin d'Aumeries
Co-Programmation & Développement : Marc-Olivier Méhu
Soutien technique & logistique : Manuel Goepfert

Contact : metmap@orbifly.com




SOURCES & CREDITS :

   NOAA